createdAt,value
2022-09-01T00:03:25.085Z,16.32005
2022-09-01T00:08:27.915Z,16.22571
2022-09-01T00:13:28.942Z,16.18953
2022-09-01T00:18:30.030Z,16.17435
2022-09-01T00:23:31.147Z,16.16078
2022-09-01T00:28:32.094Z,16.12395
2022-09-01T00:33:33.290Z,16.11426
2022-09-01T00:38:34.350Z,16.12524
2022-09-01T00:43:35.325Z,16.12169
2022-09-01T00:48:36.251Z,16.11942
2022-09-01T00:53:38.495Z,16.05837
2022-09-01T00:58:39.575Z,16.04738
2022-09-01T01:03:40.498Z,16.01928
2022-09-01T01:08:41.424Z,15.99408
2022-09-01T01:13:42.347Z,16.02574
2022-09-01T01:18:43.332Z,16.02121
2022-09-01T01:23:44.341Z,15.97631
2022-09-01T01:28:45.289Z,16.00409
2022-09-01T01:33:46.270Z,15.98406
2022-09-01T01:38:47.245Z,15.90427
2022-09-01T01:43:48.292Z,15.88714
2022-09-01T01:48:49.242Z,15.84579
2022-09-01T01:53:50.115Z,15.8193
2022-09-01T01:58:51.010Z,15.83029
2022-09-01T02:03:51.987Z,15.78764
2022-09-01T02:08:53.118Z,15.78312
2022-09-01T02:13:54.076Z,15.72949
2022-09-01T02:18:55.108Z,15.76115
2022-09-01T02:23:56.077Z,15.72917
2022-09-01T02:28:57.104Z,15.70914
2022-09-01T02:33:58.008Z,15.63871
2022-09-01T02:38:59.147Z,15.65745
2022-09-01T02:44:00.608Z,15.62611
2022-09-01T02:49:01.710Z,15.58799
2022-09-01T02:54:02.833Z,15.49947
2022-09-01T02:59:04.193Z,15.41548
2022-09-01T03:04:05.195Z,15.34279
2022-09-01T03:09:06.126Z,15.30822
2022-09-01T03:14:07.045Z,15.18514
2022-09-01T03:19:07.964Z,15.16155
2022-09-01T03:24:08.900Z,15.05462
2022-09-01T03:29:09.797Z,14.97418
2022-09-01T03:34:10.887Z,14.82008
2022-09-01T03:39:16.482Z,14.75967
2022-09-01T03:44:17.752Z,14.72381
2022-09-01T03:49:18.659Z,14.64305
2022-09-01T03:54:19.570Z,14.58684
2022-09-01T03:59:20.433Z,14.48249
2022-09-01T04:04:21.397Z,14.3859
2022-09-01T04:09:22.354Z,14.34293
2022-09-01T04:14:23.295Z,14.26734
2022-09-01T04:19:24.186Z,14.20402
2022-09-01T04:24:25.082Z,14.09741
2022-09-01T04:29:26.012Z,14.05283
2022-09-01T04:34:26.908Z,13.95559
2022-09-01T04:39:27.925Z,13.81086
2022-09-01T04:44:28.876Z,13.78889
2022-09-01T04:49:29.815Z,13.71621
2022-09-01T04:54:30.751Z,13.71782
2022-09-01T04:59:31.673Z,13.79212
2022-09-01T05:04:32.586Z,13.74787
2022-09-01T05:09:33.581Z,13.78534
2022-09-01T05:14:34.566Z,13.81248
2022-09-01T05:19:35.567Z,13.82766
2022-09-01T05:24:41.273Z,13.83509
2022-09-01T05:29:43.099Z,13.83768
2022-09-01T05:34:44.048Z,13.85254
2022-09-01T05:39:45.045Z,13.94138
2022-09-01T05:44:45.956Z,14.02989
2022-09-01T05:49:46.890Z,14.14038
2022-09-01T05:54:47.784Z,14.20466
2022-09-01T05:59:51.034Z,14.26217
2022-09-01T06:04:51.947Z,14.39462
2022-09-01T06:09:52.920Z,14.65533
2022-09-01T06:14:53.844Z,14.74255
2022-09-01T06:19:54.805Z,14.81718
2022-09-01T06:25:01.023Z,14.9212
2022-09-01T06:30:03.056Z,15.07271
2022-09-01T06:35:03.982Z,15.22681
2022-09-01T06:40:06.271Z,15.46071
2022-09-01T06:45:07.204Z,15.61707
2022-09-01T06:50:08.361Z,15.74597
2022-09-01T06:55:09.403Z,15.9369
2022-09-01T07:00:10.365Z,16.0771
2022-09-01T07:05:59.827Z,16.32231
2022-09-01T07:48:06.780Z,18.2103
2022-09-01T07:53:07.794Z,18.1389
2022-09-01T07:58:08.651Z,18.26102
2022-09-01T08:03:09.785Z,18.31465
2022-09-01T08:08:19.334Z,18.35762
2022-09-01T08:13:21.795Z,18.4778
2022-09-01T08:18:23.350Z,18.95723
2022-09-01T08:23:24.276Z,19.62179
2022-09-01T08:28:26.940Z,20.60556
2022-09-01T08:33:28.180Z,20.1316
2022-09-01T08:38:29.225Z,21.24073
2022-09-01T08:43:30.248Z,20.72833
2022-09-01T08:49:23.762Z,20.46276
2022-09-01T08:54:29.414Z,20.45856
2022-09-01T08:59:31.087Z,20.51606
2022-09-01T09:04:32.072Z,21.8213
2022-09-01T09:09:34.115Z,21.6071
2022-09-01T09:14:35.227Z,21.54668
2022-09-01T09:19:36.220Z,21.3719
2022-09-01T09:24:39.573Z,21.14413
2022-09-01T09:29:41.378Z,21.23233
2022-09-01T09:34:42.338Z,21.49338
2022-09-01T09:39:43.287Z,21.76799
2022-09-01T09:44:44.250Z,27.21982
2022-09-01T09:49:48.761Z,29.69383
2022-09-01T09:54:49.970Z,29.30933
2022-09-01T09:59:59.193Z,26.40819
2022-09-01T10:05:02.471Z,24.87414
2022-09-01T10:10:03.402Z,24.20373
2022-09-01T10:15:06.993Z,23.08133
2022-09-01T10:20:12.916Z,22.80412
2022-09-01T10:25:13.871Z,22.37216
2022-09-01T10:30:19.140Z,22.31626
2022-09-01T10:35:21.320Z,22.0158
2022-09-01T10:40:30.337Z,22.81769
2022-09-01T10:45:32.233Z,22.21902
2022-09-01T10:50:35.302Z,22.65841
2022-09-01T10:55:36.600Z,22.5547
2022-09-01T11:00:37.700Z,22.6387
2022-09-01T11:05:38.759Z,22.65421
2022-09-01T11:10:39.672Z,22.79023
2022-09-01T11:15:40.959Z,23.0949
2022-09-01T11:20:42.034Z,23.18859
2022-09-01T11:25:43.781Z,23.18794
2022-09-01T11:30:44.744Z,23.05774
2022-09-01T11:35:45.691Z,22.71689
2022-09-01T11:40:46.696Z,22.3434
2022-09-01T11:45:47.664Z,22.22935
2022-09-01T11:50:49.312Z,22.02904
2022-09-01T11:55:50.309Z,22.03163
2022-09-01T12:00:51.197Z,22.00513
2022-09-01T12:05:52.107Z,21.87235
2022-09-01T12:10:53.037Z,21.9725
2022-09-01T12:16:14.476Z,22.10561
2022-09-01T12:21:18.861Z,22.00093
2022-09-01T12:26:19.758Z,21.85199
2022-09-01T12:31:21.104Z,21.99932
2022-09-01T12:36:22.211Z,22.10303
2022-09-01T12:41:25.160Z,22.12952
2022-09-01T12:46:27.032Z,22.20157
2022-09-01T12:51:31.014Z,22.15731
2022-09-01T12:56:32.549Z,22.01257
2022-09-01T13:01:33.767Z,22.05974
2022-09-01T13:06:34.707Z,22.15924
2022-09-01T13:12:06.744Z,22.21417
2022-09-01T13:17:10.073Z,22.21061
2022-09-01T13:22:15.423Z,22.21934
2022-09-01T13:27:23.962Z,22.20641
2022-09-01T13:32:25.256Z,22.4694
2022-09-01T13:37:28.013Z,23.55368
2022-09-01T13:42:29.049Z,23.66611
2022-09-01T13:47:30.479Z,23.95624
2022-09-01T13:52:31.788Z,23.60699
2022-09-01T13:57:36.137Z,23.05096
2022-09-01T14:02:37.697Z,22.87261
2022-09-01T14:07:38.741Z,23.05322
2022-09-01T14:12:39.664Z,23.08876
2022-09-01T14:17:40.595Z,23.17502
2022-09-01T14:22:41.620Z,23.24481
2022-09-01T14:27:42.533Z,23.48938
2022-09-01T14:32:45.498Z,23.71037
2022-09-01T14:37:46.528Z,23.80665
2022-09-01T14:42:47.541Z,23.70876
2022-09-01T14:47:48.620Z,23.62896
2022-09-01T14:52:49.552Z,24.06706
2022-09-01T14:57:50.460Z,24.56365
2022-09-01T15:02:51.414Z,24.8344
2022-09-01T15:07:52.365Z,24.81631
2022-09-01T15:12:53.321Z,24.82277
2022-09-01T15:17:54.332Z,24.94716
2022-09-01T15:22:55.553Z,25.04312
2022-09-01T15:27:56.503Z,24.61179
2022-09-01T15:32:57.401Z,24.50259
2022-09-01T15:37:58.412Z,24.5013
2022-09-01T15:42:59.355Z,24.46446
2022-09-01T15:48:00.262Z,24.31617
2022-09-01T15:53:01.494Z,24.21892
2022-09-01T15:58:02.691Z,24.24896
2022-09-01T16:03:03.639Z,24.09485
2022-09-01T16:08:04.624Z,24.04154
2022-09-01T16:13:05.552Z,23.80116
2022-09-01T16:18:06.458Z,23.48454
2022-09-01T16:23:07.387Z,23.27033
2022-09-01T16:28:08.318Z,22.81446
2022-09-01T16:33:09.265Z,22.58798
2022-09-01T16:38:10.177Z,22.45777
2022-09-01T16:43:12.359Z,22.29171
2022-09-01T16:48:13.549Z,22.16732
2022-09-01T16:53:14.495Z,22.14083
2022-09-01T16:58:18.751Z,21.92986
2022-09-01T17:03:22.936Z,21.84004
2022-09-01T17:08:35.216Z,21.76961
2022-09-01T17:13:36.159Z,21.68238
2022-09-01T17:18:37.102Z,21.50242
2022-09-01T17:23:38.040Z,21.39645
2022-09-01T17:28:38.994Z,21.30825
2022-09-01T17:33:39.897Z,21.20131
2022-09-01T17:38:40.778Z,20.99196
2022-09-01T17:43:41.879Z,20.7448
2022-09-01T17:48:42.784Z,20.61202
2022-09-01T17:53:43.757Z,20.50476
2022-09-01T17:58:44.802Z,20.36842
2022-09-01T18:03:45.834Z,20.27473
2022-09-01T18:08:46.764Z,20.1413
2022-09-01T18:13:53.230Z,20.06117
2022-09-01T18:18:54.819Z,19.93518
2022-09-01T18:23:55.783Z,19.77428
2022-09-01T18:28:56.688Z,19.66153
2022-09-01T18:33:58.082Z,19.5281
2022-09-01T18:38:59.051Z,19.42827
2022-09-01T18:44:00.063Z,19.25123
2022-09-01T18:49:01.305Z,19.12168
2022-09-01T18:54:02.798Z,19.00957
2022-09-01T18:59:03.732Z,18.90877
2022-09-01T19:04:09.477Z,18.80507
2022-09-01T19:09:11.310Z,18.66873
2022-09-01T19:14:12.340Z,18.53111
2022-09-01T19:19:13.310Z,18.419
2022-09-01T19:24:14.287Z,18.29559
2022-09-01T19:29:15.215Z,18.18801
2022-09-01T19:34:16.126Z,18.10142
2022-09-01T19:39:17.031Z,17.94894
2022-09-01T19:44:17.933Z,17.80776
2022-09-01T19:49:18.858Z,17.6963
2022-09-01T19:54:19.777Z,17.59324
2022-09-01T19:59:20.750Z,17.45432
2022-09-01T20:04:21.778Z,17.37452
2022-09-01T20:09:22.711Z,17.30894
2022-09-01T20:14:23.645Z,17.23625
2022-09-01T20:19:24.573Z,17.17713
2022-09-01T20:24:25.555Z,17.09798
2022-09-01T20:29:26.525Z,16.99977
2022-09-01T20:34:27.444Z,16.92708
2022-09-01T20:39:28.434Z,16.8741
2022-09-01T20:44:29.457Z,16.80593
2022-09-01T20:49:30.442Z,16.77783
2022-09-01T20:54:31.690Z,16.74649
2022-09-01T20:59:32.578Z,16.69867
2022-09-01T21:04:33.458Z,16.61436
2022-09-01T21:09:34.449Z,16.53294
2022-09-01T21:14:35.455Z,16.49805
2022-09-01T21:19:36.638Z,16.46122
2022-09-01T21:24:37.603Z,16.41244
2022-09-01T21:29:38.621Z,16.33814
2022-09-01T21:34:39.520Z,16.24962
2022-09-01T21:39:40.445Z,16.13752
2022-09-01T21:44:41.433Z,16.03123
2022-09-01T21:49:42.333Z,15.94756
2022-09-01T21:54:43.260Z,15.90879
2022-09-01T21:59:44.176Z,15.88294
2022-09-01T22:04:45.166Z,15.84353
2022-09-01T22:09:48.477Z,15.7857
2022-09-01T22:14:49.383Z,15.69815
2022-09-01T22:19:50.383Z,15.57862
2022-09-01T22:24:51.345Z,15.50658
2022-09-01T22:29:52.251Z,15.42032
2022-09-01T22:34:53.209Z,15.38317
2022-09-01T22:39:54.113Z,15.32922
2022-09-01T22:44:55.040Z,15.25976
2022-09-01T22:49:56.016Z,15.15251
2022-09-01T22:54:56.975Z,15.05462
2022-09-01T22:59:58.063Z,14.94995
2022-09-01T23:04:59.003Z,14.88954
2022-09-01T23:09:59.982Z,14.84464
2022-09-01T23:15:00.992Z,14.7587
2022-09-01T23:20:02.385Z,14.73157
2022-09-01T23:25:03.398Z,14.6844
2022-09-01T23:30:04.359Z,14.61979
2022-09-01T23:35:05.301Z,14.56681
2022-09-01T23:40:06.254Z,14.52901
2022-09-01T23:45:07.217Z,14.50543
2022-09-01T23:50:08.247Z,14.45858
2022-09-01T23:55:09.185Z,14.41659
